sensor_id;sensor_type;location;lat;lon;timestamp;temperature;humidity
70851;DHT22;58475;49.662;9.636;2023-02-27T00:01:04;0.02;85.45
70851;DHT22;58475;49.662;9.636;2023-02-27T00:03:30;0.03;86.03
70851;DHT22;58475;49.662;9.636;2023-02-27T00:05:55;0.00;85.64
70851;DHT22;58475;49.662;9.636;2023-02-27T00:08:58;0.06;86.03
70851;DHT22;58475;49.662;9.636;2023-02-27T00:11:24;0.03;85.80
70851;DHT22;58475;49.662;9.636;2023-02-27T00:13:49;0.02;85.48
70851;DHT22;58475;49.662;9.636;2023-02-27T00:19:22;0.09;86.06
70851;DHT22;58475;49.662;9.636;2023-02-27T00:21:47;0.04;86.11
70851;DHT22;58475;49.662;9.636;2023-02-27T00:24:13;0.04;85.51
70851;DHT22;58475;49.662;9.636;2023-02-27T00:26:38;-0.07;85.55
70851;DHT22;58475;49.662;9.636;2023-02-27T00:29:04;-0.04;86.11
70851;DHT22;58475;49.662;9.636;2023-02-27T00:31:30;-0.07;85.94
70851;DHT22;58475;49.662;9.636;2023-02-27T00:33:56;0.00;86.01
70851;DHT22;58475;49.662;9.636;2023-02-27T00:36:21;-0.03;85.64
70851;DHT22;58475;49.662;9.636;2023-02-27T00:38:47;0.03;85.95
70851;DHT22;58475;49.662;9.636;2023-02-27T00:41:12;0.03;85.87
70851;DHT22;58475;49.662;9.636;2023-02-27T00:43:38;-0.04;85.83
70851;DHT22;58475;49.662;9.636;2023-02-27T00:46:06;0.02;86.16
70851;DHT22;58475;49.662;9.636;2023-02-27T00:48:32;-0.04;86.12
70851;DHT22;58475;49.662;9.636;2023-02-27T00:50:57;0.02;86.16
70851;DHT22;58475;49.662;9.636;2023-02-27T00:53:23;-0.07;85.66
70851;DHT22;58475;49.662;9.636;2023-02-27T00:55:49;-0.07;85.65
70851;DHT22;58475;49.662;9.636;2023-02-27T00:58:14;-0.07;85.96
70851;DHT22;58475;49.662;9.636;2023-02-27T01:00:40;-0.11;85.96
70851;DHT22;58475;49.662;9.636;2023-02-27T01:03:05;-0.08;85.94
70851;DHT22;58475;49.662;9.636;2023-02-27T01:05:31;-0.08;86.01
70851;DHT22;58475;49.662;9.636;2023-02-27T01:07:58;-0.07;86.04
70851;DHT22;58475;49.662;9.636;2023-02-27T01:10:24;-0.06;85.74
70851;DHT22;58475;49.662;9.636;2023-02-27T01:12:49;-0.04;86.10
70851;DHT22;58475;49.662;9.636;2023-02-27T01:15:15;-0.08;86.04
70851;DHT22;58475;49.662;9.636;2023-02-27T01:17:40;-0.04;86.02
70851;DHT22;58475;49.662;9.636;2023-02-27T01:20:07;-0.06;86.02
70851;DHT22;58475;49.662;9.636;2023-02-27T01:22:33;-0.08;85.92
70851;DHT22;58475;49.662;9.636;2023-02-27T01:24:59;-0.07;85.90
70851;DHT22;58475;49.662;9.636;2023-02-27T01:27:25;-0.10;85.87
70851;DHT22;58475;49.662;9.636;2023-02-27T01:29:50;-0.13;85.79
70851;DHT22;58475;49.662;9.636;2023-02-27T01:32:16;-0.14;85.64
70851;DHT22;58475;49.662;9.636;2023-02-27T01:34:42;-0.14;85.87
70851;DHT22;58475;49.662;9.636;2023-02-27T01:37:07;-0.19;85.53
70851;DHT22;58475;49.662;9.636;2023-02-27T01:39:33;-0.25;85.75
70851;DHT22;58475;49.662;9.636;2023-02-27T01:41:59;-0.19;86.06
70851;DHT22;58475;49.662;9.636;2023-02-27T01:44:28;-0.21;85.88
70851;DHT22;58475;49.662;9.636;2023-02-27T01:46:54;-0.21;85.93
70851;DHT22;58475;49.662;9.636;2023-02-27T01:49:29;-0.25;85.65
70851;DHT22;58475;49.662;9.636;2023-02-27T01:52:04;-0.25;85.60
70851;DHT22;58475;49.662;9.636;2023-02-27T01:54:35;-0.24;85.96
70851;DHT22;58475;49.662;9.636;2023-02-27T01:57:03;-0.24;86.10
70851;DHT22;58475;49.662;9.636;2023-02-27T01:59:33;-0.22;85.64
70851;DHT22;58475;49.662;9.636;2023-02-27T02:02:01;-0.22;86.15
70851;DHT22;58475;49.662;9.636;2023-02-27T02:04:33;-0.27;85.83
70851;DHT22;58475;49.662;9.636;2023-02-27T02:07:12;-0.27;86.24
70851;DHT22;58475;49.662;9.636;2023-02-27T02:09:42;-0.27;86.19
70851;DHT22;58475;49.662;9.636;2023-02-27T02:12:12;-0.28;86.12
70851;DHT22;58475;49.662;9.636;2023-02-27T02:14:41;-0.31;86.04
70851;DHT22;58475;49.662;9.636;2023-02-27T02:26:36;-0.27;86.33
70851;DHT22;58475;49.662;9.636;2023-02-27T02:29:35;-0.28;86.04
70851;DHT22;58475;49.662;9.636;2023-02-27T02:43:39;-0.37;86.26
70851;DHT22;58475;49.662;9.636;2023-02-27T02:46:16;-0.39;86.09
70851;DHT22;58475;49.662;9.636;2023-02-27T02:48:47;-0.32;86.33
70851;DHT22;58475;49.662;9.636;2023-02-27T02:51:29;-0.29;86.24
70851;DHT22;58475;49.662;9.636;2023-02-27T02:54:14;-0.29;86.20
70851;DHT22;58475;49.662;9.636;2023-02-27T02:56:55;-0.32;86.15
70851;DHT22;58475;49.662;9.636;2023-02-27T02:59:52;-0.32;86.26
70851;DHT22;58475;49.662;9.636;2023-02-27T03:02:24;-0.34;86.31
70851;DHT22;58475;49.662;9.636;2023-02-27T03:07:22;-0.31;86.02
70851;DHT22;58475;49.662;9.636;2023-02-27T03:09:52;-0.37;86.13
70851;DHT22;58475;49.662;9.636;2023-02-27T03:12:22;-0.29;86.48
70851;DHT22;58475;49.662;9.636;2023-02-27T03:15:01;-0.37;86.08
70851;DHT22;58475;49.662;9.636;2023-02-27T03:17:42;-0.35;86.46
70851;DHT22;58475;49.662;9.636;2023-02-27T03:20:18;-0.34;86.40
70851;DHT22;58475;49.662;9.636;2023-02-27T03:22:46;-0.41;85.86
70851;DHT22;58475;49.662;9.636;2023-02-27T03:25:15;-0.39;86.18
70851;DHT22;58475;49.662;9.636;2023-02-27T03:27:51;-0.32;86.44
70851;DHT22;58475;49.662;9.636;2023-02-27T03:33:26;-0.35;86.24
70851;DHT22;58475;49.662;9.636;2023-02-27T03:36:07;-0.34;86.15
70851;DHT22;58475;49.662;9.636;2023-02-27T03:41:20;-0.32;86.28
70851;DHT22;58475;49.662;9.636;2023-02-27T03:44:27;-0.35;86.28
70851;DHT22;58475;49.662;9.636;2023-02-27T03:46:55;-0.37;86.31
70851;DHT22;58475;49.662;9.636;2023-02-27T03:49:20;-0.35;86.21
70851;DHT22;58475;49.662;9.636;2023-02-27T03:51:47;-0.34;86.34
70851;DHT22;58475;49.662;9.636;2023-02-27T03:54:14;-0.34;85.93
70851;DHT22;58475;49.662;9.636;2023-02-27T03:56:46;-0.37;86.04
70851;DHT22;58475;49.662;9.636;2023-02-27T03:59:14;-0.39;85.74
70851;DHT22;58475;49.662;9.636;2023-02-27T04:01:45;-0.35;86.08
70851;DHT22;58475;49.662;9.636;2023-02-27T04:04:13;-0.41;85.73
70851;DHT22;58475;49.662;9.636;2023-02-27T04:07:14;-0.41;86.00
70851;DHT22;58475;49.662;9.636;2023-02-27T04:10:16;-0.37;85.74
70851;DHT22;58475;49.662;9.636;2023-02-27T04:21:01;-0.32;86.43
70851;DHT22;58475;49.662;9.636;2023-02-27T04:23:39;-0.38;86.05
70851;DHT22;58475;49.662;9.636;2023-02-27T04:26:40;-0.38;86.28
70851;DHT22;58475;49.662;9.636;2023-02-27T04:31:45;-0.41;86.26
70851;DHT22;58475;49.662;9.636;2023-02-27T04:36:44;-0.37;86.05
70851;DHT22;58475;49.662;9.636;2023-02-27T04:39:26;-0.32;86.53
70851;DHT22;58475;49.662;9.636;2023-02-27T04:44:18;-0.34;86.41
70851;DHT22;58475;49.662;9.636;2023-02-27T04:46:46;-0.31;86.58
70851;DHT22;58475;49.662;9.636;2023-02-27T04:49:17;-0.29;86.24
70851;DHT22;58475;49.662;9.636;2023-02-27T04:54:20;-0.38;86.34
70851;DHT22;58475;49.662;9.636;2023-02-27T04:56:51;-0.42;86.28
70851;DHT22;58475;49.662;9.636;2023-02-27T04:59:23;-0.42;85.88
70851;DHT22;58475;49.662;9.636;2023-02-27T05:01:55;-0.38;86.32
70851;DHT22;58475;49.662;9.636;2023-02-27T05:04:24;-0.41;86.33
70851;DHT22;58475;49.662;9.636;2023-02-27T05:06:53;-0.41;85.91
70851;DHT22;58475;49.662;9.636;2023-02-27T05:09:26;-0.41;86.09
70851;DHT22;58475;49.662;9.636;2023-02-27T05:12:04;-0.45;85.81
70851;DHT22;58475;49.662;9.636;2023-02-27T05:14:39;-0.44;85.68
70851;DHT22;58475;49.662;9.636;2023-02-27T05:17:24;-0.45;85.85
70851;DHT22;58475;49.662;9.636;2023-02-27T05:19:50;-0.41;86.14
70851;DHT22;58475;49.662;9.636;2023-02-27T05:25:29;-0.39;85.83
70851;DHT22;58475;49.662;9.636;2023-02-27T05:28:22;-0.39;85.68
70851;DHT22;58475;49.662;9.636;2023-02-27T05:30:52;-0.42;85.94
70851;DHT22;58475;49.662;9.636;2023-02-27T05:33:34;-0.49;85.76
70851;DHT22;58475;49.662;9.636;2023-02-27T05:36:24;-0.49;85.38
70851;DHT22;58475;49.662;9.636;2023-02-27T05:38:57;-0.46;86.04
70851;DHT22;58475;49.662;9.636;2023-02-27T05:41:38;-0.45;85.87
70851;DHT22;58475;49.662;9.636;2023-02-27T05:44:10;-0.49;85.63
70851;DHT22;58475;49.662;9.636;2023-02-27T05:46:37;-0.48;85.93
70851;DHT22;58475;49.662;9.636;2023-02-27T05:49:09;-0.49;85.78
70851;DHT22;58475;49.662;9.636;2023-02-27T05:51:37;-0.54;85.40
70851;DHT22;58475;49.662;9.636;2023-02-27T05:56:51;-0.48;85.83
70851;DHT22;58475;49.662;9.636;2023-02-27T06:05:40;-0.56;85.23
70851;DHT22;58475;49.662;9.636;2023-02-27T06:08:07;-0.59;84.94
70851;DHT22;58475;49.662;9.636;2023-02-27T06:10:32;-0.64;84.98
70851;DHT22;58475;49.662;9.636;2023-02-27T06:12:58;-0.56;85.20
70851;DHT22;58475;49.662;9.636;2023-02-27T06:15:23;-0.65;84.63
70851;DHT22;58475;49.662;9.636;2023-02-27T06:17:49;-0.66;85.56
70851;DHT22;58475;49.662;9.636;2023-02-27T06:20:14;-0.62;85.03
70851;DHT22;58475;49.662;9.636;2023-02-27T06:22:40;-0.61;85.16
70851;DHT22;58475;49.662;9.636;2023-02-27T06:25:05;-0.64;85.00
70851;DHT22;58475;49.662;9.636;2023-02-27T06:27:31;-0.61;85.50
70851;DHT22;58475;49.662;9.636;2023-02-27T06:29:56;-0.65;85.02
70851;DHT22;58475;49.662;9.636;2023-02-27T06:32:22;-0.64;84.84
70851;DHT22;58475;49.662;9.636;2023-02-27T06:34:50;-0.68;84.62
70851;DHT22;58475;49.662;9.636;2023-02-27T06:37:16;-0.65;84.47
70851;DHT22;58475;49.662;9.636;2023-02-27T06:39:41;-0.62;84.94
70851;DHT22;58475;49.662;9.636;2023-02-27T06:42:07;-0.64;84.99
70851;DHT22;58475;49.662;9.636;2023-02-27T06:44:32;-0.68;84.62
70851;DHT22;58475;49.662;9.636;2023-02-27T06:46:58;-0.69;85.25
70851;DHT22;58475;49.662;9.636;2023-02-27T06:49:23;-0.65;84.82
70851;DHT22;58475;49.662;9.636;2023-02-27T06:51:49;-0.66;84.96
70851;DHT22;58475;49.662;9.636;2023-02-27T06:54:14;-0.65;84.62
70851;DHT22;58475;49.662;9.636;2023-02-27T06:56:40;-0.65;85.06
70851;DHT22;58475;49.662;9.636;2023-02-27T06:59:05;-0.65;84.47
70851;DHT22;58475;49.662;9.636;2023-02-27T07:01:31;-0.72;85.04
70851;DHT22;58475;49.662;9.636;2023-02-27T07:03:56;-0.66;85.00
70851;DHT22;58475;49.662;9.636;2023-02-27T07:06:22;-0.65;84.96
70851;DHT22;58475;49.662;9.636;2023-02-27T07:08:47;-0.64;84.57
70851;DHT22;58475;49.662;9.636;2023-02-27T07:11:13;-0.64;84.92
70851;DHT22;58475;49.662;9.636;2023-02-27T07:13:38;-0.65;84.67
70851;DHT22;58475;49.662;9.636;2023-02-27T07:16:04;-0.73;83.70
70851;DHT22;58475;49.662;9.636;2023-02-27T07:18:30;-0.70;84.60
70851;DHT22;58475;49.662;9.636;2023-02-27T07:20:55;-0.73;84.38
70851;DHT22;58475;49.662;9.636;2023-02-27T07:23:21;-0.72;84.06
70851;DHT22;58475;49.662;9.636;2023-02-27T07:25:47;-0.75;84.05
70851;DHT22;58475;49.662;9.636;2023-02-27T07:28:13;-0.73;83.82
70851;DHT22;58475;49.662;9.636;2023-02-27T07:30:38;-0.68;85.03
70851;DHT22;58475;49.662;9.636;2023-02-27T07:33:04;-0.65;84.93
70851;DHT22;58475;49.662;9.636;2023-02-27T07:35:30;-0.62;84.03
70851;DHT22;58475;49.662;9.636;2023-02-27T07:37:55;-0.66;84.04
70851;DHT22;58475;49.662;9.636;2023-02-27T07:40:21;-0.65;84.82
70851;DHT22;58475;49.662;9.636;2023-02-27T07:42:47;-0.62;84.68
70851;DHT22;58475;49.662;9.636;2023-02-27T07:45:13;-0.56;83.79
70851;DHT22;58475;49.662;9.636;2023-02-27T07:47:38;-0.65;83.71
70851;DHT22;58475;49.662;9.636;2023-02-27T07:50:04;-0.64;83.39
70851;DHT22;58475;49.662;9.636;2023-02-27T07:52:29;-0.68;83.42
70851;DHT22;58475;49.662;9.636;2023-02-27T07:54:54;-0.66;83.66
70851;DHT22;58475;49.662;9.636;2023-02-27T07:57:20;-0.62;83.94
70851;DHT22;58475;49.662;9.636;2023-02-27T07:59:45;-0.59;83.89
70851;DHT22;58475;49.662;9.636;2023-02-27T08:02:12;-0.58;84.06
70851;DHT22;58475;49.662;9.636;2023-02-27T08:04:37;-0.56;83.80
70851;DHT22;58475;49.662;9.636;2023-02-27T08:07:03;-0.55;83.81
70851;DHT22;58475;49.662;9.636;2023-02-27T08:09:29;-0.49;84.98
70851;DHT22;58475;49.662;9.636;2023-02-27T08:11:56;-0.48;84.06
70851;DHT22;58475;49.662;9.636;2023-02-27T08:14:21;-0.51;83.78
70851;DHT22;58475;49.662;9.636;2023-02-27T08:16:47;-0.48;83.89
70851;DHT22;58475;49.662;9.636;2023-02-27T08:19:13;-0.52;83.53
70851;DHT22;58475;49.662;9.636;2023-02-27T08:21:39;-0.42;84.61
70851;DHT22;58475;49.662;9.636;2023-02-27T08:24:04;-0.38;84.08
70851;DHT22;58475;49.662;9.636;2023-02-27T08:26:30;-0.44;83.98
70851;DHT22;58475;49.662;9.636;2023-02-27T08:28:55;-0.39;83.72
70851;DHT22;58475;49.662;9.636;2023-02-27T08:31:21;-0.39;83.40
70851;DHT22;58475;49.662;9.636;2023-02-27T08:33:46;-0.35;84.06
70851;DHT22;58475;49.662;9.636;2023-02-27T08:36:12;-0.35;83.87
70851;DHT22;58475;49.662;9.636;2023-02-27T08:38:37;-0.37;83.58
70851;DHT22;58475;49.662;9.636;2023-02-27T08:41:03;-0.31;83.11
70851;DHT22;58475;49.662;9.636;2023-02-27T08:43:28;-0.32;83.51
70851;DHT22;58475;49.662;9.636;2023-02-27T08:45:54;-0.31;82.91
70851;DHT22;58475;49.662;9.636;2023-02-27T08:48:19;-0.31;83.36
70851;DHT22;58475;49.662;9.636;2023-02-27T08:50:45;-0.28;83.08
70851;DHT22;58475;49.662;9.636;2023-02-27T08:53:11;-0.29;82.84
70851;DHT22;58475;49.662;9.636;2023-02-27T08:55:37;-0.31;82.42
70851;DHT22;58475;49.662;9.636;2023-02-27T08:58:02;-0.31;82.24
70851;DHT22;58475;49.662;9.636;2023-02-27T09:00:28;-0.25;82.52
70851;DHT22;58475;49.662;9.636;2023-02-27T09:02:54;-0.27;82.47
70851;DHT22;58475;49.662;9.636;2023-02-27T09:05:20;-0.25;82.50
70851;DHT22;58475;49.662;9.636;2023-02-27T09:07:47;-0.24;82.85
70851;DHT22;58475;49.662;9.636;2023-02-27T09:10:13;-0.24;83.33
70851;DHT22;58475;49.662;9.636;2023-02-27T09:12:39;-0.19;83.22
70851;DHT22;58475;49.662;9.636;2023-02-27T09:15:05;-0.17;82.82
70851;DHT22;58475;49.662;9.636;2023-02-27T09:17:31;-0.22;82.11
70851;DHT22;58475;49.662;9.636;2023-02-27T09:19:57;-0.21;82.21
70851;DHT22;58475;49.662;9.636;2023-02-27T09:22:22;-0.19;82.05
70851;DHT22;58475;49.662;9.636;2023-02-27T09:24:48;-0.17;81.44
70851;DHT22;58475;49.662;9.636;2023-02-27T09:27:13;-0.18;80.84
70851;DHT22;58475;49.662;9.636;2023-02-27T09:29:39;-0.19;80.83
70851;DHT22;58475;49.662;9.636;2023-02-27T09:32:05;-0.11;81.06
70851;DHT22;58475;49.662;9.636;2023-02-27T09:34:30;-0.10;80.96
70851;DHT22;58475;49.662;9.636;2023-02-27T09:36:59;-0.11;80.87
70851;DHT22;58475;49.662;9.636;2023-02-27T09:39:25;-0.07;81.08
70851;DHT22;58475;49.662;9.636;2023-02-27T09:45:20;-0.01;80.20
70851;DHT22;58475;49.662;9.636;2023-02-27T09:47:25;-0.01;79.37
70851;DHT22;58475;49.662;9.636;2023-02-27T09:50:01;0.02;78.88
70851;DHT22;58475;49.662;9.636;2023-02-27T09:52:29;0.00;79.69
70851;DHT22;58475;49.662;9.636;2023-02-27T09:54:55;0.04;78.59
70851;DHT22;58475;49.662;9.636;2023-02-27T10:03:17;0.17;79.04
70851;DHT22;58475;49.662;9.636;2023-02-27T10:06:05;0.21;78.56
70851;DHT22;58475;49.662;9.636;2023-02-27T10:08:47;0.18;79.59
70851;DHT22;58475;49.662;9.636;2023-02-27T10:11:22;0.21;78.20
70851;DHT22;58475;49.662;9.636;2023-02-27T10:14:04;0.27;78.57
70851;DHT22;58475;49.662;9.636;2023-02-27T10:16:33;0.33;79.68
70851;DHT22;58475;49.662;9.636;2023-02-27T10:19:02;0.31;78.36
70851;DHT22;58475;49.662;9.636;2023-02-27T10:21:37;0.44;79.17
70851;DHT22;58475;49.662;9.636;2023-02-27T10:24:34;0.38;77.62
70851;DHT22;58475;49.662;9.636;2023-02-27T10:27:02;0.38;77.38
70851;DHT22;58475;49.662;9.636;2023-02-27T10:29:32;0.44;77.63
70851;DHT22;58475;49.662;9.636;2023-02-27T10:32:02;0.38;76.81
70851;DHT22;58475;49.662;9.636;2023-02-27T10:34:30;0.37;76.38
70851;DHT22;58475;49.662;9.636;2023-02-27T10:36:59;0.40;77.15
70851;DHT22;58475;49.662;9.636;2023-02-27T10:39:26;0.40;76.60
70851;DHT22;58475;49.662;9.636;2023-02-27T10:41:58;0.45;76.86
70851;DHT22;58475;49.662;9.636;2023-02-27T10:44:27;0.45;76.29
70851;DHT22;58475;49.662;9.636;2023-02-27T10:46:52;0.41;74.95
70851;DHT22;58475;49.662;9.636;2023-02-27T10:49:20;0.45;76.22
70851;DHT22;58475;49.662;9.636;2023-02-27T10:52:03;0.41;75.53
70851;DHT22;58475;49.662;9.636;2023-02-27T10:54:29;0.44;75.70
70851;DHT22;58475;49.662;9.636;2023-02-27T10:56:57;0.43;75.91
70851;DHT22;58475;49.662;9.636;2023-02-27T10:59:36;0.43;75.64
70851;DHT22;58475;49.662;9.636;2023-02-27T11:02:20;0.40;75.02
70851;DHT22;58475;49.662;9.636;2023-02-27T11:04:49;0.40;75.23
70851;DHT22;58475;49.662;9.636;2023-02-27T11:07:29;0.43;76.16
70851;DHT22;58475;49.662;9.636;2023-02-27T11:10:15;0.44;75.49
70851;DHT22;58475;49.662;9.636;2023-02-27T11:12:55;0.43;75.78
70851;DHT22;58475;49.662;9.636;2023-02-27T11:15:23;0.48;76.81
70851;DHT22;58475;49.662;9.636;2023-02-27T11:17:49;0.50;75.28
70851;DHT22;58475;49.662;9.636;2023-02-27T11:20:36;0.50;75.74
70851;DHT22;58475;49.662;9.636;2023-02-27T11:25:28;0.45;74.59
70851;DHT22;58475;49.662;9.636;2023-02-27T11:28:12;0.43;74.21
70851;DHT22;58475;49.662;9.636;2023-02-27T11:30:37;0.43;74.71
70851;DHT22;58475;49.662;9.636;2023-02-27T11:33:03;0.37;73.88
70851;DHT22;58475;49.662;9.636;2023-02-27T11:35:32;0.40;74.29
70851;DHT22;58475;49.662;9.636;2023-02-27T11:38:06;0.41;74.86
70851;DHT22;58475;49.662;9.636;2023-02-27T11:40:48;0.43;75.63
70851;DHT22;58475;49.662;9.636;2023-02-27T11:43:18;0.40;74.11
70851;DHT22;58475;49.662;9.636;2023-02-27T11:45:50;0.38;74.06
70851;DHT22;58475;49.662;9.636;2023-02-27T11:48:30;0.41;74.34
70851;DHT22;58475;49.662;9.636;2023-02-27T11:56:12;0.43;74.12
70851;DHT22;58475;49.662;9.636;2023-02-27T11:58:47;0.45;74.76
70851;DHT22;58475;49.662;9.636;2023-02-27T12:01:25;0.47;75.38
70851;DHT22;58475;49.662;9.636;2023-02-27T12:04:01;0.40;73.54
70851;DHT22;58475;49.662;9.636;2023-02-27T12:06:34;0.43;74.67
70851;DHT22;58475;49.662;9.636;2023-02-27T12:09:11;0.44;74.61
70851;DHT22;58475;49.662;9.636;2023-02-27T12:11:43;0.47;74.91
70851;DHT22;58475;49.662;9.636;2023-02-27T12:17:08;0.45;74.15
70851;DHT22;58475;49.662;9.636;2023-02-27T12:24:48;0.44;73.69
70851;DHT22;58475;49.662;9.636;2023-02-27T12:29:50;0.50;75.73
70851;DHT22;58475;49.662;9.636;2023-02-27T12:32:35;0.47;74.38
70851;DHT22;58475;49.662;9.636;2023-02-27T12:35:15;0.48;74.12
70851;DHT22;58475;49.662;9.636;2023-02-27T12:37:41;0.47;73.83
70851;DHT22;58475;49.662;9.636;2023-02-27T12:40:13;0.43;73.86
70851;DHT22;58475;49.662;9.636;2023-02-27T12:42:58;0.45;73.03
70851;DHT22;58475;49.662;9.636;2023-02-27T12:45:45;0.45;74.14
70851;DHT22;58475;49.662;9.636;2023-02-27T13:02:23;0.51;75.50
70851;DHT22;58475;49.662;9.636;2023-02-27T13:07:37;0.54;75.52
70851;DHT22;58475;49.662;9.636;2023-02-27T13:10:29;0.60;75.58
70851;DHT22;58475;49.662;9.636;2023-02-27T13:13:32;0.65;75.67
70851;DHT22;58475;49.662;9.636;2023-02-27T13:16:14;0.61;75.36
70851;DHT22;58475;49.662;9.636;2023-02-27T13:22:08;0.74;75.72
70851;DHT22;58475;49.662;9.636;2023-02-27T13:24:27;0.72;75.94
70851;DHT22;58475;49.662;9.636;2023-02-27T13:27:03;0.66;75.73
70851;DHT22;58475;49.662;9.636;2023-02-27T13:29:43;0.69;75.86
70851;DHT22;58475;49.662;9.636;2023-02-27T13:32:32;0.69;75.59
70851;DHT22;58475;49.662;9.636;2023-02-27T13:35:23;0.71;75.93
70851;DHT22;58475;49.662;9.636;2023-02-27T13:38:00;0.79;76.63
70851;DHT22;58475;49.662;9.636;2023-02-27T13:40:39;0.78;76.80
70851;DHT22;58475;49.662;9.636;2023-02-27T13:45:53;0.74;76.46
70851;DHT22;58475;49.662;9.636;2023-02-27T13:50:59;0.81;76.63
70851;DHT22;58475;49.662;9.636;2023-02-27T13:53:25;0.72;76.20
70851;DHT22;58475;49.662;9.636;2023-02-27T13:56:18;0.71;77.23
70851;DHT22;58475;49.662;9.636;2023-02-27T13:58:42;0.81;77.10
70851;DHT22;58475;49.662;9.636;2023-02-27T14:01:21;0.76;76.87
70851;DHT22;58475;49.662;9.636;2023-02-27T14:03:55;0.81;77.36
70851;DHT22;58475;49.662;9.636;2023-02-27T14:06:24;0.85;77.72
70851;DHT22;58475;49.662;9.636;2023-02-27T14:08:51;0.88;77.45
70851;DHT22;58475;49.662;9.636;2023-02-27T14:11:32;0.86;77.06
70851;DHT22;58475;49.662;9.636;2023-02-27T14:14:08;0.86;77.26
70851;DHT22;58475;49.662;9.636;2023-02-27T14:24:16;0.91;78.16
70851;DHT22;58475;49.662;9.636;2023-02-27T14:26:43;0.92;78.53
70851;DHT22;58475;49.662;9.636;2023-02-27T14:29:26;0.92;78.25
70851;DHT22;58475;49.662;9.636;2023-02-27T14:31:56;0.95;78.11
70851;DHT22;58475;49.662;9.636;2023-02-27T14:34:24;0.95;78.19
70851;DHT22;58475;49.662;9.636;2023-02-27T14:36:57;0.96;77.88
70851;DHT22;58475;49.662;9.636;2023-02-27T14:39:27;0.93;78.07
70851;DHT22;58475;49.662;9.636;2023-02-27T14:44:45;0.93;78.21
70851;DHT22;58475;49.662;9.636;2023-02-27T14:47:18;0.96;78.48
70851;DHT22;58475;49.662;9.636;2023-02-27T14:49:45;0.92;77.47
70851;DHT22;58475;49.662;9.636;2023-02-27T14:52:23;0.97;78.56
70851;DHT22;58475;49.662;9.636;2023-02-27T14:54:49;0.99;77.67
70851;DHT22;58475;49.662;9.636;2023-02-27T14:57:23;0.93;77.35
70851;DHT22;58475;49.662;9.636;2023-02-27T14:59:52;0.93;77.79
70851;DHT22;58475;49.662;9.636;2023-02-27T15:02:26;0.92;77.97
70851;DHT22;58475;49.662;9.636;2023-02-27T15:07:32;0.92;77.50
70851;DHT22;58475;49.662;9.636;2023-02-27T15:10:04;0.86;76.78
70851;DHT22;58475;49.662;9.636;2023-02-27T15:12:30;0.91;77.26
70851;DHT22;58475;49.662;9.636;2023-02-27T15:15:02;0.89;76.70
70851;DHT22;58475;49.662;9.636;2023-02-27T15:17:37;0.95;77.40
70851;DHT22;58475;49.662;9.636;2023-02-27T15:20:28;0.95;77.38
70851;DHT22;58475;49.662;9.636;2023-02-27T15:22:58;0.95;77.05
70851;DHT22;58475;49.662;9.636;2023-02-27T15:25:36;0.93;76.99
70851;DHT22;58475;49.662;9.636;2023-02-27T15:28:37;0.91;76.70
70851;DHT22;58475;49.662;9.636;2023-02-27T15:31:03;0.95;77.96
70851;DHT22;58475;49.662;9.636;2023-02-27T15:33:31;0.92;76.74
70851;DHT22;58475;49.662;9.636;2023-02-27T15:35:57;0.96;78.03
70851;DHT22;58475;49.662;9.636;2023-02-27T15:40:50;0.89;76.80
70851;DHT22;58475;49.662;9.636;2023-02-27T15:43:16;0.91;77.75
70851;DHT22;58475;49.662;9.636;2023-02-27T15:45:43;0.93;78.27
70851;DHT22;58475;49.662;9.636;2023-02-27T15:48:16;0.93;78.23
70851;DHT22;58475;49.662;9.636;2023-02-27T15:50:45;0.92;77.38
70851;DHT22;58475;49.662;9.636;2023-02-27T15:53:13;0.84;76.84
70851;DHT22;58475;49.662;9.636;2023-02-27T15:55:50;0.84;77.58
70851;DHT22;58475;49.662;9.636;2023-02-27T15:58:46;0.86;77.32
70851;DHT22;58475;49.662;9.636;2023-02-27T16:01:19;0.89;77.32
70851;DHT22;58475;49.662;9.636;2023-02-27T16:03:49;0.85;77.75
70851;DHT22;58475;49.662;9.636;2023-02-27T16:06:26;0.79;76.83
70851;DHT22;58475;49.662;9.636;2023-02-27T16:11:25;0.82;77.64
70851;DHT22;58475;49.662;9.636;2023-02-27T16:13:52;0.79;76.94
70851;DHT22;58475;49.662;9.636;2023-02-27T16:16:25;0.75;77.62
70851;DHT22;58475;49.662;9.636;2023-02-27T16:18:54;0.71;77.43
70851;DHT22;58475;49.662;9.636;2023-02-27T16:21:23;0.75;77.45
70851;DHT22;58475;49.662;9.636;2023-02-27T16:23:49;0.69;77.36
70851;DHT22;58475;49.662;9.636;2023-02-27T16:26:31;0.68;78.00
70851;DHT22;58475;49.662;9.636;2023-02-27T16:29:19;0.62;76.98
70851;DHT22;58475;49.662;9.636;2023-02-27T16:31:48;0.62;77.65
70851;DHT22;58475;49.662;9.636;2023-02-27T16:36:41;0.57;78.03
70851;DHT22;58475;49.662;9.636;2023-02-27T16:39:13;0.60;77.54
70851;DHT22;58475;49.662;9.636;2023-02-27T16:41:38;0.64;78.80
70851;DHT22;58475;49.662;9.636;2023-02-27T16:44:03;0.61;77.38
70851;DHT22;58475;49.662;9.636;2023-02-27T16:46:29;0.58;77.75
70851;DHT22;58475;49.662;9.636;2023-02-27T16:48:56;0.51;77.60
70851;DHT22;58475;49.662;9.636;2023-02-27T16:51:25;0.48;77.47
70851;DHT22;58475;49.662;9.636;2023-02-27T16:53:52;0.48;78.48
70851;DHT22;58475;49.662;9.636;2023-02-27T16:56:18;0.50;78.67
70851;DHT22;58475;49.662;9.636;2023-02-27T16:58:45;0.47;78.40
70851;DHT22;58475;49.662;9.636;2023-02-27T17:01:11;0.47;78.70
70851;DHT22;58475;49.662;9.636;2023-02-27T17:03:39;0.40;78.43
70851;DHT22;58475;49.662;9.636;2023-02-27T17:06:05;0.40;78.99
70851;DHT22;58475;49.662;9.636;2023-02-27T17:08:32;0.41;79.04
70851;DHT22;58475;49.662;9.636;2023-02-27T17:10:57;0.37;79.02
70851;DHT22;58475;49.662;9.636;2023-02-27T17:13:23;0.36;79.08
70851;DHT22;58475;49.662;9.636;2023-02-27T17:15:49;0.30;79.16
70851;DHT22;58475;49.662;9.636;2023-02-27T17:18:14;0.28;79.31
70851;DHT22;58475;49.662;9.636;2023-02-27T17:20:40;0.24;79.48
70851;DHT22;58475;49.662;9.636;2023-02-27T17:23:08;0.25;79.71
70851;DHT22;58475;49.662;9.636;2023-02-27T17:25:34;0.27;79.77
70851;DHT22;58475;49.662;9.636;2023-02-27T17:27:59;0.24;79.81
70851;DHT22;58475;49.662;9.636;2023-02-27T17:30:25;0.20;79.74
70851;DHT22;58475;49.662;9.636;2023-02-27T17:32:50;0.17;79.75
70851;DHT22;58475;49.662;9.636;2023-02-27T17:35:17;0.21;80.26
70851;DHT22;58475;49.662;9.636;2023-02-27T17:37:42;0.20;80.25
70851;DHT22;58475;49.662;9.636;2023-02-27T17:40:09;0.16;80.04
70851;DHT22;58475;49.662;9.636;2023-02-27T17:42:36;0.13;80.19
70851;DHT22;58475;49.662;9.636;2023-02-27T17:45:04;0.11;80.21
70851;DHT22;58475;49.662;9.636;2023-02-27T17:47:31;0.11;80.35
70851;DHT22;58475;49.662;9.636;2023-02-27T17:49:56;0.14;80.44
70851;DHT22;58475;49.662;9.636;2023-02-27T17:52:22;0.11;80.50
70851;DHT22;58475;49.662;9.636;2023-02-27T17:54:47;0.17;80.66
70851;DHT22;58475;49.662;9.636;2023-02-27T17:57:12;0.14;80.55
70851;DHT22;58475;49.662;9.636;2023-02-27T17:59:38;0.11;80.71
70851;DHT22;58475;49.662;9.636;2023-02-27T18:02:05;0.04;80.80
70851;DHT22;58475;49.662;9.636;2023-02-27T18:04:31;0.00;80.79
70851;DHT22;58475;49.662;9.636;2023-02-27T18:06:56;0.00;80.60
70851;DHT22;58475;49.662;9.636;2023-02-27T18:09:22;0.04;80.97
70851;DHT22;58475;49.662;9.636;2023-02-27T18:11:47;0.00;80.82
70851;DHT22;58475;49.662;9.636;2023-02-27T18:14:13;0.09;81.08